Taunton 2W

41° 53' 56"N, 71° 08' 19"W, Elevation 50 ft.
Eastern Time

Hourly observations for the last 72 hours

Date Time Temperature (°F) Humi-
dity

(%)
Wind
(mph)
Pressure Rain (in) Sun
(W/m2)
UV ET
(in)
Air Dew 6 Hour 1 Hr 3 Hr 6 Hr Day
Alt
(in)
Sea
Level

(mb)
Max Min
22 00:00 63.9 57.3 79 N 16 G 30 29.94 1014.0 0.00 0 0.0 0.142
21 23:00 64.3 55.8 74 N 13 G 33 29.96 1014.6 0.00 0 0.0 0.139
21 22:00 66.4 54.3 65 N 16 G 33 29.97 1014.9 0.00 0 0.0 0.135
21 21:00 66.6 53.6 63 N 7 G 26 29.98 1015.2 0.00 0 0.0 0.131
21 20:00 67.3 53.4 71.1 67.3 61 N 10 G 22 29.97 1014.8 0.00 0 0.0 0.127
21 19:00 67.4 53.9 62 NNE 6 G 19 29.95 1014.3 0.00 0 0.0 0.124
21 18:00 68.0 54.5 62 N 9 G 24 29.95 1014.2 0.00 26 0.0 0.118
21 17:00 69.2 53.8 58 N 16 G 30 29.95 1014.2 0.00 134 0.6 0.110
21 16:00 69.2 55.2 61 N 10 G 25 29.94 1014.0 0.00 176 1.2 0.097
21 15:00 68.7 50.9 53 N 17 G 31 29.96 1014.6 0.00 257 2.3 0.080
21 14:00 70.7 53.8 71.2 67.4 55 NNE 11 G 30 29.94 1013.9 0.00 606 4.5 0.061
21 13:00 68.6 56.0 64 N 15 G 28 29.95 1014.4 0.00 432 3.9 0.046
21 12:00 68.5 57.9 69 N 14 G 31 29.96 1014.7 0.00 432 3.9 0.031
21 11:00 68.3 60.5 76 N 12 G 25 29.96 1014.5 0.00 425 3.5 0.022
21 10:00 67.6 61.2 80 N 12 G 29 29.95 1014.2 0.00 144 1.1 0.017
21 09:00 68.1 62.7 83 N 12 G 22 29.92 1013.3 0.00 165 0.8 0.014
21 08:00 68.0 63.7 71.1 67.8 86 N 16 G 30 29.91 1012.9 0.00 21 0.0 0.012
21 07:00 67.8 64.1 88 N 13 G 26 29.89 1012.3 0.00 12 0.0 0.011
21 06:00 69.4 65.0 86 N 10 G 25 29.86 1011.2 0.00 0 0.0 0.009
21 05:00 69.8 65.1 85 N 13 G 27 29.84 1010.7 0.00 0 0.0 0.007
21 04:00 70.6 65.5 84 NNW 12 G 25 29.83 1010.1 0.00 0 0.0 0.005
21 03:00 70.8 66.1 85 N 13 G 25 29.83 1010.0 0.00 0 0.0 0.003
21 02:00 71.0 66.3 71.3 68.8 85 N 11 G 25 29.83 1010.2 0.00 0 0.0 0.001
21 01:00 71.2 67.1 87 NNW 9 G 30 29.83 1010.2 0.00 0 0.0 0.000
21 00:00 70.9 67.2 88 N 11 G 23 29.82 1009.9 1.03 0 0.0 0.023
20 23:00 68.9 66.8 93 N 10 G 21 29.82 1009.8 1.03 0 0.0 0.022
20 22:00 69.2 66.8 92 NNW 6 G 21 29.83 1010.3 1.03 0 0.0 0.021
20 21:00 68.9 66.8 93 N 11 G 20 29.82 1009.9 1.03 0 0.0 0.020
20 20:00 68.8 66.7 68.9 66.7 93 N 7 G 22 29.82 1010.0 0.01 0.09 1.03 0 0.0 0.019
20 19:00 67.9 66.7 96 N 13 G 31 29.82 1009.9 1.03 0 0.0 0.019
20 18:00 67.3 66.4 97 N 9 G 20 29.81 1009.6 0.01 1.03 7 0.0 0.018
20 17:00 67.2 66.3 97 N 10 G 32 29.81 1009.4 0.02 0.08 1.02 21 0.0 0.017
20 16:00 67.2 66.3 97 N 12 G 23 29.79 1008.8 0.02 1.00 49 0.0 0.015
20 15:00 67.0 66.1 97 N 12 G 23 29.79 1008.9 0.04 0.98 109 1.0 0.013
20 14:00 66.8 65.9 67.0 65.0 97 N 12 G 29 29.79 1008.8 0.01 0.01 0.05 0.94 70 0.6 0.011
20 13:00 66.5 65.6 97 N 8 G 22 29.79 1008.8 0.93 70 0.6 0.009
20 12:00 66.7 65.8 97 N 7 G 24 29.80 1009.1 0.93 100 1.0 0.006
20 11:00 66.5 65.6 97 N 9 G 24 29.80 1009.3 0.01 0.04 0.93 118 1.0 0.004
20 10:00 66.3 65.4 97 N 11 G 17 29.82 1009.9 0.01 0.92 70 0.6 0.002
20 09:00 65.5 64.9 98 N 11 G 18 29.82 1010.0 0.02 0.91 76 0.0 0.001
20 08:00 65.1 64.5 65.2 64.0 98 N 8 G 17 29.82 1009.8 0.01 0.03 0.21 0.89 23 0.0 0.000
20 07:00 65.0 64.4 98 N 9 G 21 29.82 1009.8 0.02 0.88 9 0.0 0.000
20 06:00 64.7 64.1 98 N 5 G 16 29.81 1009.7 0.86 0 0.0 0.000
20 05:00 64.1 63.5 98 N 5 G 17 29.82 1009.8 0.03 0.18 0.86 0 0.0 0.000
20 04:00 64.9 64.3 98 N 9 G 16 29.82 1009.9 0.06 0.83 0 0.0 0.000
20 03:00 64.3 63.7 98 NNW 6 G 12 29.84 1010.6 0.09 0.77 0 0.0 0.000
20 02:00 64.3 63.7 64.9 64.2 98 NNW 8 G 13 29.86 1011.3 0.57 0.69 0.73 0.68 0 0.0 0.000
20 01:00 64.6 64.0 98 N 7 G 14 29.87 1011.7 0.11 0.11 0 0.0 0.000
20 00:00 64.5 63.6 97 N 7 G 16 29.89 1012.1 0.01 0.13 0 0.0 0.026
19 23:00 64.2 63.3 97 N 7 G 16 29.91 1012.9 0.01 0.04 0.12 0 0.0 0.026
19 22:00 64.5 63.6 97 N 7 G 18 29.92 1013.3 0.03 0.11 0 0.0 0.026
19 21:00 64.8 63.9 97 N 8 G 13 29.93 1013.7 0.08 0 0.0 0.026
19 20:00 64.6 63.7 65.6 64.4 97 NNW 6 G 14 29.92 1013.3 0.01 0.03 0.03 0.08 0 0.0 0.026
19 19:00 64.7 63.8 97 N 6 G 13 29.94 1013.8 0.02 0.07 0 0.0 0.026
19 18:00 64.6 63.7 97 NNE 4 G 10 29.95 1014.2 0.05 9 0.0 0.025
19 17:00 64.7 63.5 96 N 7 G 17 29.95 1014.3 0.05 33 0.0 0.023
19 16:00 65.3 63.8 95 N 8 G 17 29.97 1014.9 0.05 84 0.5 0.020
19 15:00 65.2 63.4 94 NNE 5 G 19 29.98 1015.2 0.05 100 0.9 0.017
19 14:00 65.3 63.5 66.6 64.5 94 NNE 9 G 21 30.00 1015.8 0.01 0.05 0.05 142 1.4 0.013
19 13:00 66.0 64.5 95 NNE 8 G 12 30.03 1017.0 0.05 121 1.2 0.009
19 12:00 66.1 65.2 97 N 7 G 15 30.04 1017.3 0.01 0.05 262 2.6 0.005
19 11:00 65.4 64.5 97 NNE 7 G 17 30.06 1017.9 0.01 0.04 0.04 91 0.8 0.003
19 10:00 65.2 64.6 98 N 6 G 13 30.06 1018.1 0.02 0.03 76 0.6 0.001
19 09:00 64.7 64.1 98 N 8 G 12 30.07 1018.2 0.01 0.01 42 0.0 0.000
19 08:00 64.5 63.6 64.9 64.2 97 N 5 G 13 30.07 1018.2 0.00 18 0.0 0.000
19 07:00 64.5 63.6 97 N 3 G 11 30.07 1018.3 0.00 0 0.0 0.000
19 06:00 64.3 63.4 97 N 3 G 11 30.06 1017.9 0.00 0 0.0 0.000
19 05:00 64.6 63.7 97 N 3 G 8 30.08 1018.5 0.00 0 0.0 0.000
19 04:00 64.5 63.6 97 N 5 G 8 30.08 1018.8 0.00 0 0.0 0.000
19 03:00 64.7 63.8 97 N 7 G 11 30.08 1018.8 0.00 0 0.0 0.000
19 02:00 64.8 63.9 66.5 64.8 97 N 2 G 10 30.09 1019.1 0.00 0 0.0 0.000
19 01:00 64.9 64.0 97 NNE 3 G 9 30.11 1019.6 0.00 0 0.0 0.000

Data generated by WxSolution Version 1.9.0.7, Build 2017.01.18.